createdAt,value
2023-05-19T00:01:25.083Z,8.86
2023-05-19T00:06:31.954Z,8.86
2023-05-19T00:11:38.055Z,8.84
2023-05-19T00:16:42.354Z,8.80
2023-05-19T00:21:45.243Z,8.78
2023-05-19T00:26:48.147Z,8.76
2023-05-19T00:31:51.183Z,8.71
2023-05-19T00:36:54.055Z,8.62
2023-05-19T00:41:56.965Z,8.57
2023-05-19T00:46:59.904Z,8.59
2023-05-19T00:52:03.410Z,8.65
2023-05-19T00:57:06.933Z,8.68
2023-05-19T01:02:10.038Z,8.65
2023-05-19T01:07:12.943Z,8.64
2023-05-19T01:12:16.372Z,8.63
2023-05-19T01:17:49.688Z,8.64
2023-05-19T01:24:04.940Z,8.65
2023-05-19T01:29:40.195Z,8.70
2023-05-19T01:34:46.495Z,8.72
2023-05-19T01:39:50.505Z,8.75
2023-05-19T01:44:54.943Z,8.76
2023-05-19T01:49:57.903Z,8.77
2023-05-19T01:55:00.991Z,8.78
2023-05-19T02:00:23.843Z,8.82
2023-05-19T02:06:01.028Z,8.90
2023-05-19T02:11:21.797Z,8.91
2023-05-19T02:16:29.430Z,8.86
2023-05-19T02:21:32.422Z,8.80
2023-05-19T02:26:35.413Z,8.79
2023-05-19T02:31:38.382Z,8.80
2023-05-19T02:36:46.079Z,8.82
2023-05-19T02:41:49.010Z,8.78
2023-05-19T02:46:51.944Z,8.72
2023-05-19T02:51:54.850Z,8.66
2023-05-19T02:56:58.245Z,8.59
2023-05-19T03:02:02.662Z,8.55
2023-05-19T03:07:06.303Z,8.57
2023-05-19T03:12:09.545Z,8.59
2023-05-19T03:17:12.473Z,8.65
2023-05-19T03:22:15.475Z,8.77
2023-05-19T03:27:18.336Z,8.80
2023-05-19T03:32:21.388Z,8.85
2023-05-19T03:37:24.584Z,8.98
2023-05-19T03:42:27.547Z,9.05
2023-05-19T03:47:31.797Z,9.09
2023-05-19T03:52:34.790Z,9.16
2023-05-19T03:57:37.898Z,9.37
2023-05-19T04:02:41.334Z,9.49
2023-05-19T04:07:46.876Z,9.52
2023-05-19T04:12:49.914Z,9.50
2023-05-19T04:17:52.863Z,9.53
2023-05-19T04:22:55.760Z,9.57
2023-05-19T04:27:59.008Z,9.57
2023-05-19T04:33:03.948Z,9.58
2023-05-19T04:38:06.836Z,9.66
2023-05-19T04:43:11.491Z,9.73
2023-05-19T04:48:15.247Z,9.74
2023-05-19T04:53:18.862Z,9.78
2023-05-19T04:58:21.691Z,9.82
2023-05-19T05:03:26.580Z,9.94
2023-05-19T05:08:30.412Z,10.02
2023-05-19T05:13:33.900Z,10.19
2023-05-19T05:18:38.862Z,10.28
2023-05-19T05:23:42.166Z,10.30
2023-05-19T05:28:45.314Z,10.38
2023-05-19T05:33:48.293Z,10.53
2023-05-19T05:38:51.745Z,10.61
2023-05-19T05:43:54.961Z,10.71
2023-05-19T05:48:58.245Z,11.02
2023-05-19T05:54:03.180Z,11.29
2023-05-19T05:59:06.099Z,11.37
2023-05-19T06:04:08.971Z,11.46
2023-05-19T06:09:12.518Z,11.69
2023-05-19T06:14:15.401Z,11.90
2023-05-19T06:19:20.365Z,11.93
2023-05-19T06:24:23.509Z,11.97
2023-05-19T06:29:26.425Z,12.12
2023-05-19T06:34:29.328Z,12.31
2023-05-19T06:39:32.604Z,12.43
2023-05-19T06:44:35.745Z,12.54
2023-05-19T06:49:38.730Z,12.79
2023-05-19T06:54:41.672Z,12.97
2023-05-19T06:59:46.815Z,13.05
2023-05-19T07:04:52.880Z,13.34
2023-05-19T07:09:55.978Z,13.70
2023-05-19T07:14:58.913Z,13.85
2023-05-19T07:20:02.033Z,14.06
2023-05-19T07:25:06.686Z,14.05
2023-05-19T07:30:10.146Z,14.30
2023-05-19T07:35:13.290Z,14.42
2023-05-19T07:40:16.246Z,14.53
2023-05-19T07:45:19.272Z,14.58
2023-05-19T07:50:25.902Z,14.61
2023-05-19T07:55:29.432Z,14.72
2023-05-19T08:00:32.883Z,14.77
2023-05-19T08:05:36.687Z,14.85
2023-05-19T08:10:39.769Z,14.98
2023-05-19T08:15:43.473Z,15.18
2023-05-19T08:20:46.900Z,15.43
2023-05-19T08:25:49.964Z,15.80
2023-05-19T08:30:52.977Z,16.00
2023-05-19T08:35:58.383Z,15.88
2023-05-19T08:41:01.863Z,15.90
2023-05-19T08:46:06.424Z,16.01
2023-05-19T08:51:22.143Z,15.86
2023-05-19T08:56:26.851Z,15.89
2023-05-19T09:01:31.005Z,15.87
2023-05-19T09:06:34.022Z,15.96
2023-05-19T09:11:40.034Z,15.89
2023-05-19T09:16:48.269Z,15.92
2023-05-19T09:22:04.837Z,16.06
2023-05-19T09:27:08.501Z,16.07
2023-05-19T09:32:12.032Z,15.97
2023-05-19T09:37:14.977Z,15.82
2023-05-19T09:42:29.970Z,15.66
2023-05-19T09:47:38.565Z,15.62
2023-05-19T09:52:44.828Z,15.82
2023-05-19T09:57:48.270Z,15.93
2023-05-19T10:02:51.874Z,15.85
2023-05-19T10:07:55.942Z,15.93
2023-05-19T10:13:00.882Z,15.89
2023-05-19T10:18:04.543Z,15.71
2023-05-19T10:23:07.483Z,15.49
2023-05-19T10:28:18.624Z,15.35
2023-05-19T10:33:42.212Z,15.44
2023-05-19T10:39:02.629Z,15.46
2023-05-19T10:44:39.213Z,15.48
2023-05-19T10:49:45.828Z,15.08
2023-05-19T10:54:49.995Z,14.60
2023-05-19T10:59:53.238Z,14.37
2023-05-19T11:05:13.140Z,14.18
2023-05-19T11:10:24.058Z,14.13
2023-05-19T11:15:29.223Z,13.96
2023-05-19T11:20:35.140Z,13.89
2023-05-19T11:25:54.103Z,13.89
2023-05-19T11:30:59.767Z,13.94
2023-05-19T11:36:03.276Z,13.90
2023-05-19T11:41:06.312Z,13.80
2023-05-19T11:46:09.846Z,13.81
2023-05-19T11:51:12.932Z,13.63
2023-05-19T11:56:15.831Z,13.45
2023-05-19T12:01:19.407Z,13.23
2023-05-19T12:06:22.369Z,13.15
2023-05-19T12:11:25.387Z,13.13
2023-05-19T12:16:35.633Z,13.10
2023-05-19T12:21:39.320Z,13.01
2023-05-19T12:26:42.472Z,12.96
2023-05-19T12:31:47.716Z,12.83
2023-05-19T12:36:50.846Z,12.72
2023-05-19T12:41:54.418Z,12.77
2023-05-19T12:46:59.676Z,12.69
2023-05-19T12:52:11.923Z,12.77
2023-05-19T12:57:21.186Z,12.94
2023-05-19T13:02:24.860Z,12.96
2023-05-19T13:07:28.627Z,12.75
2023-05-19T13:12:31.674Z,12.65
2023-05-19T13:17:34.860Z,12.62
2023-05-19T13:22:38.045Z,12.64
2023-05-19T13:27:40.948Z,12.67
2023-05-19T13:32:44.843Z,12.87
2023-05-19T13:37:49.568Z,12.91
2023-05-19T13:42:52.517Z,12.87
2023-05-19T13:47:55.510Z,12.88
2023-05-19T13:52:58.494Z,12.89
2023-05-19T13:58:01.498Z,12.75
2023-05-19T14:03:04.560Z,12.60
2023-05-19T14:08:07.701Z,12.54
2023-05-19T14:13:31.439Z,12.49
2023-05-19T14:18:35.814Z,12.47
2023-05-19T14:23:38.806Z,12.56
2023-05-19T14:28:42.498Z,12.76
2023-05-19T14:33:45.409Z,12.96
2023-05-19T14:38:48.236Z,13.13
2023-05-19T14:43:51.139Z,13.23
2023-05-19T14:48:54.061Z,13.31
2023-05-19T14:53:56.982Z,13.35
2023-05-19T14:58:59.962Z,13.44
2023-05-19T15:04:02.875Z,13.39
2023-05-19T15:09:06.014Z,13.29
2023-05-19T15:14:09.095Z,13.19
2023-05-19T15:19:11.999Z,13.08
2023-05-19T15:24:14.897Z,13.05
2023-05-19T15:29:17.900Z,13.07
2023-05-19T15:34:21.164Z,13.15
2023-05-19T15:39:24.395Z,13.25
2023-05-19T15:44:29.013Z,13.32
2023-05-19T15:49:32.148Z,13.35
2023-05-19T15:54:35.084Z,13.35
2023-05-19T15:59:37.932Z,13.33
2023-05-19T16:04:40.823Z,13.26
2023-05-19T16:09:43.755Z,13.21
2023-05-19T16:14:46.766Z,13.12
2023-05-19T16:19:49.675Z,13.09
2023-05-19T16:24:53.117Z,13.11
2023-05-19T16:29:56.139Z,13.09
2023-05-19T16:34:59.196Z,13.07
2023-05-19T16:40:02.303Z,13.02
2023-05-19T16:45:06.032Z,12.98
2023-05-19T16:50:09.735Z,12.97
2023-05-19T16:55:17.406Z,12.95
2023-05-19T17:00:20.639Z,12.91
2023-05-19T17:05:23.959Z,12.86
2023-05-19T17:10:27.018Z,12.82
2023-05-19T17:15:30.444Z,12.78
2023-05-19T17:20:33.621Z,12.75
2023-05-19T17:25:36.760Z,12.74
2023-05-19T17:30:41.405Z,12.69
2023-05-19T17:35:44.376Z,12.65
2023-05-19T17:40:47.549Z,12.64
2023-05-19T17:45:50.746Z,12.62
2023-05-19T17:50:53.761Z,12.60
2023-05-19T17:56:02.276Z,12.57
2023-05-19T18:01:05.768Z,12.54
2023-05-19T18:06:08.927Z,12.52
2023-05-19T18:11:16.032Z,12.50
2023-05-19T18:16:19.010Z,12.47
2023-05-19T18:21:22.048Z,12.42
2023-05-19T18:26:24.994Z,12.35
2023-05-19T18:31:28.878Z,12.32
2023-05-19T18:36:31.875Z,12.29
2023-05-19T18:41:37.480Z,12.27
2023-05-19T18:46:40.520Z,12.25
2023-05-19T18:51:43.529Z,12.21
2023-05-19T18:56:46.760Z,12.19
2023-05-19T19:01:49.789Z,12.16
2023-05-19T19:06:52.897Z,12.13
2023-05-19T19:11:55.905Z,12.11
2023-05-19T19:16:58.901Z,12.08
2023-05-19T19:22:01.874Z,12.05
2023-05-19T19:27:05.453Z,12.03
2023-05-19T19:32:08.812Z,12.01
2023-05-19T19:37:14.493Z,11.99
2023-05-19T19:42:17.431Z,11.97
2023-05-19T19:47:20.413Z,11.97
2023-05-19T19:52:23.886Z,11.96
2023-05-19T19:57:29.166Z,11.95
2023-05-19T20:02:32.229Z,11.91
2023-05-19T20:07:35.290Z,11.89
2023-05-19T20:12:38.353Z,11.89
2023-05-19T20:17:41.300Z,11.88
2023-05-19T20:22:46.162Z,11.85
2023-05-19T20:27:49.239Z,11.83
2023-05-19T20:32:52.316Z,11.81
2023-05-19T20:37:55.406Z,11.82
2023-05-19T20:42:58.414Z,11.83
2023-05-19T20:48:02.810Z,11.81
2023-05-19T20:53:07.460Z,11.79
2023-05-19T20:58:10.595Z,11.75
2023-05-19T21:03:13.700Z,11.73
2023-05-19T21:08:16.983Z,11.67
2023-05-19T21:13:20.171Z,11.65
2023-05-19T21:18:23.140Z,11.64
2023-05-19T21:23:26.085Z,11.62
2023-05-19T21:28:29.019Z,11.60
2023-05-19T21:33:32.096Z,11.59
2023-05-19T21:38:35.123Z,11.57
2023-05-19T21:43:38.184Z,11.58
2023-05-19T21:48:41.150Z,11.59
2023-05-19T21:53:44.077Z,11.59
2023-05-19T21:58:46.970Z,11.57
2023-05-19T22:03:50.104Z,11.56
2023-05-19T22:08:53.149Z,11.56
2023-05-19T22:13:56.228Z,11.53
2023-05-19T22:18:59.261Z,11.52
2023-05-19T22:24:02.662Z,11.50
2023-05-19T22:29:05.714Z,11.49
2023-05-19T22:34:08.682Z,11.50
2023-05-19T22:39:12.716Z,11.50
2023-05-19T22:44:16.472Z,11.51
2023-05-19T22:49:23.107Z,11.53
2023-05-19T22:54:26.108Z,11.55
2023-05-19T22:59:29.947Z,11.56
2023-05-19T23:04:34.423Z,11.58
2023-05-19T23:09:37.501Z,11.58
2023-05-19T23:14:40.506Z,11.59
2023-05-19T23:19:43.665Z,11.59
2023-05-19T23:24:46.692Z,11.59
2023-05-19T23:29:51.829Z,11.55
2023-05-19T23:34:54.840Z,11.53
2023-05-19T23:39:57.827Z,11.52
2023-05-19T23:45:00.788Z,11.52
2023-05-19T23:50:04.052Z,11.53
2023-05-19T23:55:08.307Z,11.54
